Time;durP1;ratioP1;P1;durP2;ratioP2;P2;SDS_P1;SDS_P2;PMS_P1;PMS_P2;Temp;Humidity;BMP_temperature;BMP_pressure;BME280_temperature;BME280_humidity;BME280_pressure;Samples;Min_cycle;Max_cycle;Signal;HPM_P1;HPM_P2
2023/01/24 04:59:29;;;;;;;12.68;8.80;;;;;;;7.66;74.51;101989.47;5604552;31;127276;-59
2023/01/24 05:02:32;;;;;;;13.45;9.07;;;;;;;7.66;74.51;101989.47;5583972;31;33352;-59
2023/01/24 05:05:35;;;;;;;13.57;8.70;;;;;;;7.27;73.65;101996.00;5568938;31;33444;-60
2023/01/24 05:08:37;;;;;;;13.88;8.93;;;;;;;7.30;74.86;101996.37;5564135;32;33151;-59
2023/01/24 05:11:39;;;;;;;12.15;8.90;;;;;;;7.28;73.97;101994.94;5564220;32;34083;-59
2023/01/24 05:14:42;;;;;;;12.18;8.55;;;;;;;7.42;75.65;101998.34;5564137;32;33197;-60
2023/01/24 05:17:44;;;;;;;11.32;8.82;;;;;;;7.46;71.40;101994.19;5563037;32;33564;-59
2023/01/24 05:20:47;;;;;;;14.25;9.13;;;;;;;7.57;70.69;101995.31;5563834;32;33455;-59
2023/01/24 05:23:51;;;;;;;14.48;9.30;;;;;;;7.57;71.49;102001.47;5564328;32;33583;-59
2023/01/24 05:26:54;;;;;;;14.07;9.20;;;;;;;7.57;71.63;102001.47;5564169;32;33173;-59
2023/01/24 05:29:58;;;;;;;14.02;9.25;;;;;;;7.59;71.50;102002.06;5564096;32;33399;-59
2023/01/24 05:33:01;;;;;;;13.13;9.45;;;;;;;7.57;87.03;101998.78;5563900;32;33972;-59
2023/01/24 05:36:06;;;;;;;13.48;8.95;;;;;;;7.56;73.60;102007.03;5564201;32;34512;-59
2023/01/24 05:39:09;;;;;;;16.75;9.15;;;;;;;7.37;76.02;102009.66;5563728;32;34364;-59
2023/01/24 05:42:11;;;;;;;15.93;9.48;;;;;;;7.43;84.44;102008.78;5563816;32;33677;-59
2023/01/24 05:45:14;;;;;;;13.23;8.77;;;;;;;7.59;72.88;101996.72;5563861;32;33186;-60
2023/01/24 05:48:16;;;;;;;11.30;8.43;;;;;;;7.31;76.90;102002.50;5564001;32;33317;-59
2023/01/24 05:51:20;;;;;;;13.15;9.40;;;;;;;7.45;85.63;101998.72;5563823;32;33003;-59
2023/01/24 05:54:23;;;;;;;14.02;8.98;;;;;;;7.28;75.08;102001.12;5563778;32;34829;-59
2023/01/24 05:57:26;;;;;;;14.68;9.07;;;;;;;7.38;85.28;102010.47;5563297;32;33288;-59
2023/01/24 06:00:34;;;;;;;11.90;8.23;;;;;;;7.39;74.53;102004.13;5562601;32;34548;-59
2023/01/24 06:03:40;;;;;;;16.05;8.50;;;;;;;7.31;89.13;102007.84;5562815;32;33398;-59
2023/01/24 06:06:42;;;;;;;14.35;8.93;;;;;;;7.28;76.92;102011.78;5563445;32;34243;-59
2023/01/24 06:09:45;;;;;;;11.95;8.93;;;;;;;7.31;74.07;102013.19;5565756;32;33499;-59
2023/01/24 06:12:47;;;;;;;12.30;9.00;;;;;;;7.28;73.97;102022.47;5551074;32;33694;-59
2023/01/24 06:15:50;;;;;;;13.85;8.90;;;;;;;7.32;73.26;102019.34;5550002;32;34404;-59
2023/01/24 06:18:54;;;;;;;12.37;8.55;;;;;;;7.18;74.37;102034.63;5549948;32;33823;-59
2023/01/24 06:22:09;;;;;;;13.50;9.20;;;;;;;7.33;74.29;102029.81;5550487;32;33217;-59
2023/01/24 06:25:24;;;;;;;13.88;8.20;;;;;;;7.17;78.93;102035.69;5550355;32;31889;-59
2023/01/24 06:28:26;;;;;;;15.02;8.55;;;;;;;7.19;79.03;102028.28;5550422;32;33646;-60
2023/01/24 06:31:38;;;;;;;14.32;8.80;;;;;;;7.13;76.24;102039.81;5550080;32;33732;-59
2023/01/24 06:35:18;;;;;;;12.30;9.15;;;;;;;7.04;86.90;102032.06;5550219;32;33600;-59
2023/01/24 06:38:23;;;;;;;14.93;9.48;;;;;;;6.99;75.77;102031.91;5534745;32;34370;-59
2023/01/24 06:41:26;;;;;;;22.02;9.55;;;;;;;7.00;78.32;102036.19;5550069;32;34167;-59
2023/01/24 06:44:28;;;;;;;12.82;8.88;;;;;;;6.90;80.38;102033.19;5549746;32;33374;-59
2023/01/24 06:47:31;;;;;;;18.35;9.68;;;;;;;7.14;75.69;102042.25;5549670;32;34374;-59
2023/01/24 06:50:33;;;;;;;21.42;10.48;;;;;;;7.10;83.48;102046.38;5549869;32;33898;-59
2023/01/24 06:53:35;;;;;;;16.98;9.98;;;;;;;6.96;78.02;102051.00;5549267;32;33668;-59
2023/01/24 06:56:38;;;;;;;15.85;9.68;;;;;;;7.12;76.83;102046.16;5549722;32;34250;-60
2023/01/24 06:59:40;;;;;;;19.95;10.32;;;;;;;7.17;88.57;102052.50;5549487;32;34015;-59
2023/01/24 07:02:42;;;;;;;16.42;9.93;;;;;;;7.26;83.98;102053.06;5549684;32;34223;-59
2023/01/24 07:05:45;;;;;;;17.23;10.40;;;;;;;7.34;76.96;102044.75;5558809;32;33732;-59
2023/01/24 07:08:47;;;;;;;18.55;10.45;;;;;;;7.23;85.23;102048.97;5569471;32;34411;-59
2023/01/24 07:11:52;;;;;;;22.35;11.18;;;;;;;7.10;79.10;102057.06;5566560;32;33561;-59
2023/01/24 07:14:54;;;;;;;19.73;12.50;;;;;;;7.34;78.99;102060.78;5568939;32;33689;-58
2023/01/24 07:18:04;;;;;;;17.52;10.55;;;;;;;7.45;74.68;102060.09;5568703;32;34424;-58
2023/01/24 07:21:08;;;;;;;13.85;9.82;;;;;;;7.53;87.02;102061.66;5568040;32;33300;-58
2023/01/24 07:24:17;;;;;;;13.88;9.80;;;;;;;7.63;74.11;102063.84;5567983;32;34303;-59
2023/01/24 07:27:19;;;;;;;16.52;10.95;;;;;;;7.83;88.08;102067.13;5567668;32;33758;-58
2023/01/24 07:30:22;;;;;;;16.08;10.25;;;;;;;7.93;87.03;102062.09;5560825;32;34385;-58
2023/01/24 07:33:24;;;;;;;14.93;10.30;;;;;;;8.20;94.94;102067.16;5568392;32;33708;-59
2023/01/24 07:36:28;;;;;;;14.20;10.48;;;;;;;8.45;88.52;102062.56;5566338;32;34285;-59
2023/01/24 07:39:30;;;;;;;15.57;10.45;;;;;;;8.55;95.01;102062.03;5567074;32;33605;-59
2023/01/24 07:42:34;;;;;;;17.42;10.48;;;;;;;8.67;85.27;102064.75;5566694;32;33610;-59
2023/01/24 07:45:38;;;;;;;15.65;9.70;;;;;;;8.63;80.62;102071.59;5566783;32;33622;-59
2023/01/24 07:48:40;;;;;;;18.92;10.93;;;;;;;8.76;87.95;102073.28;5566695;32;34356;-59
2023/01/24 07:51:44;;;;;;;15.32;10.57;;;;;;;8.70;84.18;102080.34;5567895;32;33747;-59
2023/01/24 07:54:47;;;;;;;18.25;10.40;;;;;;;8.75;82.97;102077.00;5568654;32;33688;-59
2023/01/24 07:57:49;;;;;;;14.85;10.00;;;;;;;8.62;69.74;102083.34;5568336;32;34247;-59
2023/01/24 08:00:52;;;;;;;16.55;11.25;;;;;;;8.52;94.65;102085.75;5568123;32;33695;-59
2023/01/24 08:03:56;;;;;;;16.27;10.77;;;;;;;8.57;77.79;102083.19;5568476;32;34302;-59
2023/01/24 08:07:16;;;;;;;18.35;10.70;;;;;;;8.66;71.58;102090.69;5568408;32;33846;-58
2023/01/24 08:10:21;;;;;;;16.45;10.55;;;;;;;8.81;87.23;102097.50;5565629;32;33344;-59
2023/01/24 08:13:23;;;;;;;14.55;11.00;;;;;;;8.69;69.64;102100.94;5568484;32;34279;-59
2023/01/24 08:16:26;;;;;;;16.65;10.52;;;;;;;8.77;75.26;102107.81;5568516;32;33743;-59
2023/01/24 08:19:28;;;;;;;16.65;10.98;;;;;;;9.01;81.25;102106.06;5567767;32;33806;-59
2023/01/24 08:22:53;;;;;;;15.65;10.88;;;;;;;8.85;70.27;102107.50;5568277;32;33185;-59
2023/01/24 08:26:00;;;;;;;19.25;12.57;;;;;;;8.77;70.12;102107.81;5567998;32;34194;-59
2023/01/24 08:29:03;;;;;;;22.52;12.98;;;;;;;8.81;69.72;102102.84;5563963;32;33562;-59
2023/01/24 08:32:05;;;;;;;20.62;12.93;;;;;;;8.87;68.17;102107.28;5548598;32;34352;-59
2023/01/24 08:35:08;;;;;;;19.20;12.52;;;;;;;8.70;70.67;102115.09;5557229;32;33645;-59
2023/01/24 08:38:11;;;;;;;21.77;13.52;;;;;;;8.83;69.47;102112.25;5564464;32;33565;-59
2023/01/24 08:41:14;;;;;;;22.35;13.23;;;;;;;8.75;69.63;102114.44;5552904;32;33713;-59
2023/01/24 08:44:16;;;;;;;22.40;13.48;;;;;;;8.90;69.14;102118.34;5567009;32;34121;-59
2023/01/24 08:47:20;;;;;;;20.52;12.98;;;;;;;8.86;68.86;102122.50;5567026;32;34372;-59
2023/01/24 08:50:22;;;;;;;19.62;13.35;;;;;;;9.02;68.84;102114.91;5568006;32;33627;-59
2023/01/24 08:53:25;;;;;;;21.02;13.52;;;;;;;9.04;67.81;102112.81;5567813;32;33152;-58
2023/01/24 08:56:27;;;;;;;22.42;13.10;;;;;;;8.99;68.20;102124.19;5566507;32;34239;-59
2023/01/24 08:59:30;;;;;;;18.45;13.02;;;;;;;8.93;68.40;102115.22;5553995;32;33329;-59
2023/01/24 09:02:34;;;;;;;19.15;13.60;;;;;;;8.82;68.67;102117.84;5548216;32;33696;-59
2023/01/24 09:05:38;;;;;;;18.45;12.40;;;;;;;8.93;67.54;102122.41;5553503;32;33544;-59
2023/01/24 09:08:41;;;;;;;22.23;12.65;;;;;;;8.81;69.51;102129.59;5567769;32;33612;-59
2023/01/24 09:11:44;;;;;;;18.00;12.68;;;;;;;8.87;69.12;102126.00;5566440;32;33748;-59
2023/01/24 09:14:46;;;;;;;19.80;12.63;;;;;;;9.05;67.75;102125.97;5567350;32;34177;-59
2023/01/24 09:17:48;;;;;;;22.37;13.13;;;;;;;8.82;73.89;102126.69;5567080;32;34189;-59
2023/01/24 09:20:50;;;;;;;20.35;12.57;;;;;;;8.96;69.89;102124.66;5567117;32;33823;-59
2023/01/24 09:23:54;;;;;;;17.90;12.23;;;;;;;8.98;69.11;102121.75;5566734;32;34025;-59
2023/01/24 09:26:56;;;;;;;20.62;13.40;;;;;;;8.96;69.34;102131.84;5567170;32;34323;-59
2023/01/24 09:30:00;;;;;;;18.75;12.85;;;;;;;9.10;68.17;102119.94;5567097;32;33685;-59
2023/01/24 09:33:05;;;;;;;18.00;12.93;;;;;;;9.16;66.25;102121.69;5566444;32;33618;-59
2023/01/24 09:36:08;;;;;;;24.35;13.10;;;;;;;9.12;66.57;102125.88;5566593;32;34312;-59
2023/01/24 09:39:10;;;;;;;19.75;13.15;;;;;;;9.11;66.50;102118.91;5566869;32;33550;-59
2023/01/24 09:42:27;;;;;;;19.98;13.05;;;;;;;9.14;66.14;102113.09;5567076;32;33670;-59
2023/01/24 09:45:35;;;;;;;18.50;12.68;;;;;;;9.25;66.27;102111.50;5569117;31;33782;-58
2023/01/24 09:48:39;;;;;;;18.20;12.95;;;;;;;9.30;81.81;102122.31;5568891;32;33646;-59
2023/01/24 09:51:53;;;;;;;17.65;12.13;;;;;;;9.47;81.90;102109.91;5568520;32;33728;-59
2023/01/24 09:55:03;;;;;;;18.50;13.40;;;;;;;9.82;91.11;102104.59;5550115;32;33678;-58
2023/01/24 09:58:54;;;;;;;23.00;13.90;;;;;;;9.81;82.53;102102.97;5568071;32;34333;-59
2023/01/24 10:01:58;;;;;;;15.30;10.15;;;;;;;9.87;69.96;102102.03;5546459;32;33663;-58
2023/01/24 10:05:01;;;;;;;10.52;7.62;;;;;;;10.07;62.12;102095.50;5568398;32;34371;-59
2023/01/24 10:08:15;;;;;;;17.85;8.73;;;;;;;9.86;62.81;102088.84;5568779;32;34408;-59
2023/01/24 10:11:17;;;;;;;12.73;7.68;;;;;;;9.93;67.41;102091.41;5567976;32;33551;-59
2023/01/24 10:14:31;;;;;;;12.13;8.77;;;;;;;9.89;58.97;102089.19;5568280;32;34482;-61
2023/01/24 10:17:43;;;;;;;15.15;9.80;;;;;;;10.00;60.19;102092.94;5568923;32;33912;-59
2023/01/24 10:20:59;;;;;;;12.13;8.75;;;;;;;10.09;76.17;102086.16;5567154;32;33737;-59
2023/01/24 10:24:11;;;;;;;15.88;8.88;;;;;;;10.19;64.71;102084.75;5562470;32;32402;-59
2023/01/24 10:27:25;;;;;;;11.75;8.50;;;;;;;10.15;61.19;102078.25;5566105;32;34473;-59
2023/01/24 10:30:43;;;;;;;14.98;9.20;;;;;;;10.07;60.10;102074.88;5569164;32;33441;-61
2023/01/24 10:33:48;;;;;;;17.60;10.73;;;;;;;10.29;69.13;102077.75;5569339;32;33530;-59
2023/01/24 10:36:59;;;;;;;13.97;9.83;;;;;;;10.49;64.69;102072.00;5568563;32;33603;-59
2023/01/24 10:40:01;;;;;;;26.60;10.25;;;;;;;10.71;68.82;102076.72;5568977;32;33930;-58
2023/01/24 10:43:07;;;;;;;13.77;9.23;;;;;;;10.62;59.41;102078.97;5568763;32;33664;-59
2023/01/24 10:46:34;;;;;;;15.25;10.70;;;;;;;10.41;57.54;102071.56;5559430;32;33645;-59
2023/01/24 10:49:40;;;;;;;14.95;10.43;;;;;;;10.52;70.96;102068.84;5557531;32;34478;-59
2023/01/24 10:52:46;;;;;;;14.87;10.40;;;;;;;10.68;67.59;102072.66;5549979;32;34227;-59
2023/01/24 10:55:49;;;;;;;15.82;10.43;;;;;;;10.44;58.86;102071.09;5552777;32;34441;-59
2023/01/24 10:58:55;;;;;;;16.20;9.93;;;;;;;10.41;62.58;102066.22;5568427;32;33675;-59
2023/01/24 11:01:59;;;;;;;17.35;10.60;;;;;;;10.31;58.27;102050.75;5569190;32;33789;-59
2023/01/24 11:05:06;;;;;;;16.17;10.02;;;;;;;10.26;56.40;102053.31;5569148;32;34342;-59
2023/01/24 11:08:20;;;;;;;16.02;9.95;;;;;;;10.28;55.36;102052.03;5568944;32;34251;-59
2023/01/24 11:11:28;;;;;;;15.52;10.10;;;;;;;10.21;56.13;102048.62;5569166;32;33643;-59
2023/01/24 11:14:35;;;;;;;15.98;9.95;;;;;;;10.24;57.47;102042.81;5568121;32;34018;-59
2023/01/24 11:17:38;;;;;;;17.35;9.88;;;;;;;10.07;56.55;102031.19;5568367;32;34396;-59
2023/01/24 11:20:43;;;;;;;14.95;10.05;;;;;;;10.11;56.58;102027.78;5568591;32;32261;-59
2023/01/24 11:24:19;;;;;;;17.20;9.57;;;;;;;10.19;59.58;102015.06;5567650;32;33743;-59
2023/01/24 11:27:21;;;;;;;;;;;;;;;10.53;68.92;102026.78;5569097;32;34418;-59
2023/01/24 11:30:25;;;;;;;14.00;9.55;;;;;;;10.30;56.65;102015.09;5569283;32;34119;-59
2023/01/24 11:34:04;;;;;;;11.75;8.77;;;;;;;10.28;55.39;102011.81;5567466;32;33917;-59
2023/01/24 11:37:12;;;;;;;12.95;8.10;;;;;;;10.20;55.33;102011.34;5550299;32;33710;-59
2023/01/24 11:40:51;;;;;;;14.60;8.57;;;;;;;10.33;57.04;102000.38;5549324;32;33681;-59
2023/01/24 11:44:12;;;;;;;12.85;8.65;;;;;;;10.19;54.09;101996.31;5553604;32;33697;-58
2023/01/24 11:47:19;;;;;;;16.17;8.70;;;;;;;10.06;55.02;101998.19;5568467;32;34288;-59
2023/01/24 11:50:37;;;;;;;14.18;9.65;;;;;;;10.23;57.54;101994.78;5567856;32;33776;-58
2023/01/24 11:53:48;;;;;;;16.37;8.80;;;;;;;10.25;56.86;101990.81;5566910;32;33317;-58
2023/01/24 11:57:01;;;;;;;14.10;9.10;;;;;;;10.63;73.46;101993.94;5568189;32;34350;-59
2023/01/24 12:00:31;;;;;;;14.23;9.65;;;;;;;10.66;57.21;102002.34;5568472;32;33253;-59
2023/01/24 12:04:02;;;;;;;14.70;10.48;;;;;;;10.66;65.87;101999.69;5568335;32;33729;-59
2023/01/24 12:07:19;;;;;;;14.02;9.50;;;;;;;10.65;56.50;101991.84;5567215;32;33733;-59
2023/01/24 12:10:59;;;;;;;14.63;10.25;;;;;;;10.53;54.42;101984.69;5567631;32;33765;-59
2023/01/24 12:14:33;;;;;;;15.48;8.82;;;;;;;10.53;58.77;101990.06;5564495;32;34351;-59
2023/01/24 12:17:47;;;;;;;10.32;8.40;;;;;;;10.56;53.30;101992.25;5561286;32;33646;-59
2023/01/24 12:21:05;;;;;;;14.25;9.13;;;;;;;10.69;67.83;101990.31;5568368;32;34356;-59
2023/01/24 12:24:22;;;;;;;15.77;8.93;;;;;;;10.75;56.62;101979.44;5567686;32;33803;-59
2023/01/24 12:27:26;;;;;;;12.68;9.85;;;;;;;10.67;58.44;101987.06;5568333;32;33934;-59
2023/01/24 12:30:42;;;;;;;16.48;9.95;;;;;;;10.69;61.13;101982.25;5567756;32;34439;-59
2023/01/24 12:34:04;;;;;;;15.40;9.57;;;;;;;10.64;63.38;101972.28;5567679;32;34397;-59
2023/01/24 12:37:19;;;;;;;14.02;9.52;;;;;;;10.67;66.95;101981.72;5566828;32;33690;-59
2023/01/24 12:40:35;;;;;;;13.23;8.80;;;;;;;10.71;54.87;101983.66;5567894;32;33334;-59
2023/01/24 12:43:56;;;;;;;;;;;;;;;10.54;56.69;101985.50;5567537;32;33602;-59
2023/01/24 12:47:07;;;;;;;12.43;8.88;;;;;;;10.46;58.21;101983.19;5565123;32;33746;-59
2023/01/24 12:50:17;;;;;;;16.05;9.18;;;;;;;10.32;73.36;101978.13;5548752;32;33660;-59
2023/01/24 12:53:25;;;;;;;12.73;10.23;;;;;;;10.35;60.36;101977.62;5562320;32;33913;-59
2023/01/24 12:57:05;;;;;;;19.83;9.52;;;;;;;10.44;65.25;101986.13;5566011;32;34333;-59
2023/01/24 13:00:21;;;;;;;19.52;9.73;;;;;;;10.45;57.60;101985.06;5538407;31;33696;-59
2023/01/24 13:03:36;;;;;;;13.45;9.23;;;;;;;10.45;66.03;101986.94;5550574;32;33706;-59
2023/01/24 13:06:54;;;;;;;16.27;9.48;;;;;;;10.72;85.69;101989.81;5566863;32;33803;-59
2023/01/24 13:10:30;;;;;;;12.55;9.45;;;;;;;11.09;72.20;101978.63;5567155;32;33664;-59
2023/01/24 13:13:39;;;;;;;11.07;9.05;;;;;;;11.23;74.57;101980.75;5566178;32;33778;-59
2023/01/24 13:17:09;;;;;;;16.20;9.10;;;;;;;10.95;57.17;101976.28;5567158;32;34358;-59
2023/01/24 13:20:31;;;;;;;18.52;10.07;;;;;;;10.81;56.12;101977.66;5568545;32;34347;-59
2023/01/24 13:23:40;;;;;;;12.88;8.88;;;;;;;10.70;58.14;101971.31;5559971;32;33301;-59
2023/01/24 13:27:18;;;;;;;17.45;9.82;;;;;;;10.61;57.01;101966.56;5565785;32;33866;-59
2023/01/24 13:30:39;;;;;;;13.60;10.32;;;;;;;10.60;57.50;101971.12;5540676;31;34324;-59
2023/01/24 13:33:51;;;;;;;19.15;12.20;;;;;;;10.50;57.63;101974.44;5568904;32;33789;-58
2023/01/24 13:36:54;;;;;;;19.92;11.80;;;;;;;10.43;57.00;101976.47;5569033;32;33564;-59
2023/01/24 13:40:06;;;;;;;17.02;11.45;;;;;;;10.50;59.01;101979.81;5557140;32;33776;-58
2023/01/24 13:43:47;;;;;;;18.67;12.23;;;;;;;10.52;60.61;101984.91;5568510;32;34920;-59
2023/01/24 13:47:01;;;;;;;16.48;10.75;;;;;;;10.49;58.10;101977.34;5508761;32;33504;-59
2023/01/24 13:50:12;;;;;;;20.67;12.43;;;;;;;10.42;72.14;101982.84;5509320;32;33939;-59
2023/01/24 13:54:06;;;;;;;19.10;13.18;;;;;;;10.24;61.57;101980.34;5568225;32;33251;-59
2023/01/24 13:57:19;;;;;;;21.42;15.18;;;;;;;10.31;64.05;101979.19;5526670;31;33751;-59
2023/01/24 14:00:22;;;;;;;22.10;14.82;;;;;;;10.38;62.91;101981.72;5568130;32;33465;-59
2023/01/24 14:03:28;;;;;;;26.70;16.12;;;;;;;10.28;63.95;101984.19;5568543;32;34276;-59
2023/01/24 14:06:42;;;;;;;21.02;16.02;;;;;;;10.30;64.13;101992.81;5569624;32;33813;-59
2023/01/24 14:09:46;;;;;;;20.12;15.63;;;;;;;10.31;64.90;101981.84;5569187;32;34351;-59
2023/01/24 14:12:54;;;;;;;25.73;16.00;;;;;;;10.29;62.13;101983.94;5569101;32;34269;-59
2023/01/24 14:15:56;;;;;;;25.50;16.70;;;;;;;10.30;66.07;101985.59;5569562;32;34356;-59
2023/01/24 14:19:03;;;;;;;24.45;15.75;;;;;;;10.41;61.50;101985.78;5568359;32;33736;-58
2023/01/24 14:22:19;;;;;;;33.83;16.95;;;;;;;10.37;68.63;101988.12;5567916;32;33727;-59
2023/01/24 14:25:41;;;;;;;26.65;16.25;;;;;;;10.31;64.79;101987.22;5569396;32;34298;-59
2023/01/24 14:28:50;;;;;;;29.10;15.65;;;;;;;10.19;65.76;101988.28;5569287;32;34463;-58
2023/01/24 14:31:55;;;;;;;29.87;17.73;;;;;;;10.15;68.76;101987.94;5569085;32;33723;-59
2023/01/24 14:35:06;;;;;;;26.30;17.42;;;;;;;10.17;67.53;101982.34;5569468;32;34746;-59
2023/01/24 14:38:15;;;;;;;25.77;17.45;;;;;;;10.19;66.07;101991.75;5562552;32;34268;-59
2023/01/24 14:41:22;;;;;;;28.67;17.80;;;;;;;10.03;68.96;101988.00;5559656;32;33765;-59
2023/01/24 14:44:38;;;;;;;33.28;18.40;;;;;;;10.16;66.24;101981.50;5553848;32;32340;-58
2023/01/24 14:47:47;;;;;;;28.95;19.30;;;;;;;10.07;66.85;101991.00;5555369;32;33319;-59
2023/01/24 14:50:58;;;;;;;28.33;18.87;;;;;;;9.88;67.80;101990.34;5562542;32;34872;-59
2023/01/24 14:54:01;;;;;;;28.33;18.85;;;;;;;9.85;69.62;101986.25;5569305;32;34413;-59
2023/01/24 14:57:25;;;;;;;31.50;18.90;;;;;;;9.87;68.76;101986.84;5561592;32;34210;-59
2023/01/24 15:00:27;;;;;;;30.55;19.83;;;;;;;9.72;69.12;101993.72;5568991;32;33660;-59
2023/01/24 15:03:34;;;;;;;29.87;19.55;;;;;;;9.79;69.59;101995.22;5568619;32;34295;-59
2023/01/24 15:06:37;;;;;;;32.03;21.55;;;;;;;9.84;68.93;101994.53;5569197;32;33328;-59
2023/01/24 15:09:41;;;;;;;33.95;21.17;;;;;;;9.72;70.19;102001.78;5568944;32;34350;-59
2023/01/24 15:12:45;;;;;;;;;;;;;;;9.76;69.20;102002.91;5567130;32;34476;-59
2023/01/24 15:15:48;;;;;;;31.80;20.73;;;;;;;9.60;70.50;101999.94;5569027;32;33862;-58
2023/01/24 15:18:53;;;;;;;33.13;21.12;;;;;;;9.43;71.17;102014.22;5569313;32;34439;-59
2023/01/24 15:21:56;;;;;;;29.60;21.20;;;;;;;9.47;71.12;102015.38;5568854;32;34053;-59
2023/01/24 15:25:03;;;;;;;36.08;20.60;;;;;;;9.43;70.83;102009.69;5568743;32;34416;-59
2023/01/24 15:28:18;;;;;;;28.17;19.90;;;;;;;9.33;71.22;102014.81;5569216;32;33655;-59
2023/01/24 15:31:26;;;;;;;29.98;18.65;;;;;;;9.32;73.40;102021.22;5569016;32;34486;-59
2023/01/24 15:34:30;;;;;;;28.75;20.33;;;;;;;9.30;87.85;102017.94;5569011;32;33405;-59
2023/01/24 15:37:32;;;;;;;31.65;19.80;;;;;;;9.34;72.49;102017.25;5568790;32;33512;-59
2023/01/24 15:40:44;;;;;;;35.53;20.50;;;;;;;9.33;72.61;102018.28;5569056;32;33793;-59
2023/01/24 15:44:04;;;;;;;43.78;20.62;;;;;;;9.21;80.89;102022.03;5567696;32;33612;-59
2023/01/24 15:51:08;;;;;;;33.33;19.23;;;;;;;9.01;79.04;102014.31;5569445;32;34350;-59
2023/01/24 15:54:13;;;;;;;29.40;20.40;;;;;;;8.83;74.23;102023.19;5569372;32;34310;-59
2023/01/24 15:57:19;;;;;;;28.02;19.80;;;;;;;8.64;80.12;102030.44;5568771;32;34241;-59
2023/01/24 16:00:24;;;;;;;29.35;21.12;;;;;;;8.53;80.45;102034.72;5568936;32;33649;-59
2023/01/24 16:03:26;;;;;;;29.77;20.27;;;;;;;8.64;78.47;102033.13;5568245;32;33780;-59
2023/01/24 16:06:28;;;;;;;31.73;22.08;;;;;;;8.69;78.53;102033.28;5568738;32;34391;-58
2023/01/24 16:09:31;;;;;;;30.50;20.55;;;;;;;8.60;75.36;102043.47;5568967;32;33622;-59
2023/01/24 16:12:34;;;;;;;32.78;20.88;;;;;;;8.42;83.16;102049.66;5569050;32;33721;-59
2023/01/24 16:15:37;;;;;;;39.28;20.83;;;;;;;8.41;75.71;102047.19;5568161;32;33390;-58
2023/01/24 16:18:41;;;;;;;28.35;20.00;;;;;;;8.29;78.24;102049.78;5565804;32;33368;-59
2023/01/24 16:21:44;;;;;;;30.95;20.92;;;;;;;8.10;78.93;102053.50;5568773;32;33179;-59
2023/01/24 16:24:46;;;;;;;33.88;20.62;;;;;;;8.17;75.88;102056.91;5568725;32;34306;-59
2023/01/24 16:27:51;;;;;;;29.60;20.52;;;;;;;8.11;80.53;102055.12;5559918;32;34355;-58
2023/01/24 16:30:59;;;;;;;30.12;21.12;;;;;;;8.00;81.77;102059.34;5569078;32;34374;-59
2023/01/24 16:34:01;;;;;;;30.30;21.58;;;;;;;8.06;78.62;102055.00;5569086;32;33650;-59
2023/01/24 16:37:03;;;;;;;33.33;21.10;;;;;;;7.90;77.26;102059.06;5567910;32;33714;-58
2023/01/24 16:40:09;;;;;;;31.00;20.23;;;;;;;7.78;78.96;102053.59;5568691;32;33727;-59
2023/01/24 16:43:21;;;;;;;33.73;21.73;;;;;;;7.63;86.56;102053.16;5568712;32;34437;-59
2023/01/24 16:46:23;;;;;;;32.78;22.00;;;;;;;7.63;85.67;102048.62;5568564;32;34309;-59
2023/01/24 16:49:26;;;;;;;34.35;24.23;;;;;;;7.52;81.95;102052.03;5567959;32;33775;-59
2023/01/24 16:52:31;;;;;;;35.08;23.95;;;;;;;7.68;77.62;102051.47;5568181;32;33845;-59
2023/01/24 16:55:34;;;;;;;35.42;24.52;;;;;;;7.81;77.42;102055.03;5568202;32;34470;-59
2023/01/24 16:58:36;;;;;;;35.53;24.25;;;;;;;7.75;78.05;102052.22;5567413;32;33709;-59
2023/01/24 17:01:39;;;;;;;31.20;22.42;;;;;;;7.61;78.36;102052.53;5567530;32;33733;-59
2023/01/24 17:04:42;;;;;;;38.00;25.23;;;;;;;7.55;87.81;102062.25;5568104;32;33719;-59
